首页
METAR-TAF:

METAR-TAF

机场 :

Upshur County Regional Airport

Buckhannon, 西維吉尼亞州, 美国

纬度: 39-00N, 经度: 080-16W, 海拔: 498米

当前天气观测

该预报发布于16分钟前的07:35 UTC
风速15节,风向西南,有时为21节阵风
温度 15°C
湿度 77%
气压 1008 hPa
能見度: 14.5公里
多云层高于3000英尺
阴天层高于3600英尺

METAR: KW22 100735Z AUTO 22015G21KT 9SM BKN030 OVC036 15/11 A2976 RMK AO2

时间: 02:51 (07:51 UTC)


TAF: 丢失

超过4000个机场的气象观测和天气预报(METAR&TAF报告)。

可查询的气象台以黄色和红色小点在地图上表示。

将鼠标移到小点上方,可查看气象台名称。

然后点击查看天气观测和预报。

如需切换地图:点击带黑十字的绿色按钮放大地图;点击带横线的绿色按钮缩小地图;或者点击绿色箭头查看邻近地区的地图。


METAR-TAF: